DAUG

Details ICAO DAUG (GHA)
Name NOUMERAT
Region Algeria
Timezone Africa/Algiers (UTC+1.0)
Plans Departing 29
Arriving 36
Stats Elevation 1,512 ft / 461 m (AMSL)
Location 32.385303° 3.801811°
Runways 2
Magnetic Variation 1.060° E
Sunrise 2018-05-25 04:42:38 UTC / 2018-05-25 05:42:38 Local
Sunset 2018-05-25 18:43:42 UTC / 2018-05-25 19:43:42 Local
Advertisement - Login to hide

Runways

ID Width Length Bearing (true) Bearing (mag) Surface Threshold Offset Overrun Length
12 197 ft / 60 m 10,148 ft / 3,093 m 122.57° 121.51° Asphalt 0 ft / 0 m 300 ft / 91 m
18 148 ft / 45 m 7,914 ft / 2,412 m 182.48° 181.42° Asphalt 0 ft / 0 m 0 ft / 0 m
30 197 ft / 60 m 10,148 ft / 3,093 m 302.58° 301.52° Asphalt 0 ft / 0 m 0 ft / 0 m
36 148 ft / 45 m 7,914 ft / 2,412 m 2.48° 1.42° Asphalt 0 ft / 0 m 0 ft / 0 m

Map

Weather


0- 5 10 15 20 25 30 35+ Temperature / ° C

Clouds and Precipitation
Forecast for 2018-05-25 12:00 UTC. Updated 6 hours ago

Ground ~20,000 ft ~40,000 ft Winds

METAR

DAUG 251600Z 20014KT 140V240 CAVOK 38/// Q1010

TAF

TAF DAUG 251100Z 2512/2612 10012KT CAVOK BECMG 2514/2516 22012KT BECMG 2520/2523 VRB02KT

Frequencies

Tower 118.90 MHz GHARDAIA TWR
Tower 119.70 MHz GHARDAIA TWR
Warning: Do not use this data for real-world aviation or navigation. No guarantee of current accuracy is given.